sensor_id;sensor_type;location;lat;lon;timestamp;pressure;altitude;pressure_sealevel;temperature;humidity
34961;BME280;30789;52.030;7.110;2023-10-19T00:02:06;98768.75;;;9.52;98.76
34961;BME280;30789;52.030;7.110;2023-10-19T00:04:32;98765.16;;;9.55;98.60
34961;BME280;30789;52.030;7.110;2023-10-19T00:07:02;98756.97;;;9.51;99.36
34961;BME280;30789;52.030;7.110;2023-10-19T00:09:31;98760.94;;;9.50;99.78
34961;BME280;30789;52.030;7.110;2023-10-19T00:12:03;98767.13;;;9.54;99.73
34961;BME280;30789;52.030;7.110;2023-10-19T00:14:31;98754.06;;;9.58;100.00
34961;BME280;30789;52.030;7.110;2023-10-19T00:16:57;98751.00;;;9.56;100.00
34961;BME280;30789;52.030;7.110;2023-10-19T00:19:25;98747.38;;;9.59;100.00
34961;BME280;30789;52.030;7.110;2023-10-19T00:21:53;98747.22;;;9.66;100.00
34961;BME280;30789;52.030;7.110;2023-10-19T00:24:28;98744.47;;;9.66;100.00
34961;BME280;30789;52.030;7.110;2023-10-19T00:26:56;98739.56;;;9.58;100.00
34961;BME280;30789;52.030;7.110;2023-10-19T00:29:30;98732.16;;;9.55;100.00
34961;BME280;30789;52.030;7.110;2023-10-19T00:31:57;98723.56;;;9.53;100.00
34961;BME280;30789;52.030;7.110;2023-10-19T00:34:24;98728.75;;;9.67;100.00
34961;BME280;30789;52.030;7.110;2023-10-19T00:36:51;98727.91;;;9.70;100.00
34961;BME280;30789;52.030;7.110;2023-10-19T00:39:18;98727.91;;;9.70;100.00
34961;BME280;30789;52.030;7.110;2023-10-19T00:41:49;98714.22;;;9.66;100.00
34961;BME280;30789;52.030;7.110;2023-10-19T00:44:17;98715.69;;;9.71;100.00
34961;BME280;30789;52.030;7.110;2023-10-19T00:46:48;98710.13;;;9.74;100.00
34961;BME280;30789;52.030;7.110;2023-10-19T00:49:26;98699.56;;;9.73;100.00
34961;BME280;30789;52.030;7.110;2023-10-19T00:51:56;98704.63;;;9.74;100.00
34961;BME280;30789;52.030;7.110;2023-10-19T00:54:38;98702.22;;;9.76;100.00
34961;BME280;30789;52.030;7.110;2023-10-19T00:57:09;98698.19;;;9.81;100.00
34961;BME280;30789;52.030;7.110;2023-10-19T00:59:37;98695.88;;;9.79;100.00
34961;BME280;30789;52.030;7.110;2023-10-19T01:02:08;98692.41;;;9.75;100.00
34961;BME280;30789;52.030;7.110;2023-10-19T01:04:55;98697.91;;;9.75;100.00
34961;BME280;30789;52.030;7.110;2023-10-19T01:07:25;98692.78;;;9.77;100.00
34961;BME280;30789;52.030;7.110;2023-10-19T01:09:58;98680.41;;;9.85;100.00
34961;BME280;30789;52.030;7.110;2023-10-19T01:12:27;98681.09;;;9.89;100.00
34961;BME280;30789;52.030;7.110;2023-10-19T01:15:06;98684.88;;;9.95;100.00
34961;BME280;30789;52.030;7.110;2023-10-19T01:17:35;98690.38;;;9.95;100.00
34961;BME280;30789;52.030;7.110;2023-10-19T01:20:07;98673.28;;;10.04;100.00
34961;BME280;30789;52.030;7.110;2023-10-19T01:22:50;98665.63;;;9.95;100.00
34961;BME280;30789;52.030;7.110;2023-10-19T01:25:18;98661.59;;;10.00;100.00
34961;BME280;30789;52.030;7.110;2023-10-19T01:27:50;98674.84;;;10.05;100.00
34961;BME280;30789;52.030;7.110;2023-10-19T01:30:22;98670.19;;;10.02;100.00
34961;BME280;30789;52.030;7.110;2023-10-19T01:32:49;98660.72;;;10.03;100.00
34961;BME280;30789;52.030;7.110;2023-10-19T01:35:17;98663.47;;;10.03;100.00
34961;BME280;30789;52.030;7.110;2023-10-19T01:37:43;98674.38;;;10.10;100.00
34961;BME280;30789;52.030;7.110;2023-10-19T01:40:11;98672.28;;;10.14;100.00
34961;BME280;30789;52.030;7.110;2023-10-19T01:42:40;98666.00;;;10.13;100.00
34961;BME280;30789;52.030;7.110;2023-10-19T01:45:07;98663.25;;;10.13;100.00
34961;BME280;30789;52.030;7.110;2023-10-19T01:47:36;98667.88;;;10.16;100.00
34961;BME280;30789;52.030;7.110;2023-10-19T01:50:02;98669.09;;;10.15;100.00
34961;BME280;30789;52.030;7.110;2023-10-19T01:52:31;98668.25;;;10.18;100.00
34961;BME280;30789;52.030;7.110;2023-10-19T01:54:56;98665.41;;;10.22;100.00
34961;BME280;30789;52.030;7.110;2023-10-19T01:57:34;98653.25;;;10.19;100.00
34961;BME280;30789;52.030;7.110;2023-10-19T02:00:00;98645.34;;;10.21;100.00
34961;BME280;30789;52.030;7.110;2023-10-19T02:02:36;98654.72;;;10.24;100.00
34961;BME280;30789;52.030;7.110;2023-10-19T02:05:01;98657.75;;;10.29;100.00
34961;BME280;30789;52.030;7.110;2023-10-19T02:07:34;98656.53;;;10.30;100.00
34961;BME280;30789;52.030;7.110;2023-10-19T02:10:00;98649.06;;;10.31;100.00
34961;BME280;30789;52.030;7.110;2023-10-19T02:12:26;98648.63;;;10.32;100.00
34961;BME280;30789;52.030;7.110;2023-10-19T02:14:53;98654.22;;;10.29;100.00
34961;BME280;30789;52.030;7.110;2023-10-19T02:17:20;98645.09;;;10.32;100.00
34961;BME280;30789;52.030;7.110;2023-10-19T02:19:45;98633.31;;;10.31;100.00
34961;BME280;30789;52.030;7.110;2023-10-19T02:22:12;98626.94;;;10.34;100.00
34961;BME280;30789;52.030;7.110;2023-10-19T02:24:38;98622.31;;;10.31;100.00
34961;BME280;30789;52.030;7.110;2023-10-19T05:50:18;98556.78;;;11.96;100.00
34961;BME280;30789;52.030;7.110;2023-10-19T05:52:56;98552.94;;;11.94;100.00
34961;BME280;30789;52.030;7.110;2023-10-19T06:48:41;98596.56;;;12.33;100.00
34961;BME280;30789;52.030;7.110;2023-10-19T06:51:22;98594.13;;;12.35;100.00
34961;BME280;30789;52.030;7.110;2023-10-19T06:53:51;98590.47;;;12.38;100.00
34961;BME280;30789;52.030;7.110;2023-10-19T06:56:18;98597.19;;;12.37;100.00
34961;BME280;30789;52.030;7.110;2023-10-19T06:59:17;98592.25;;;12.45;100.00
34961;BME280;30789;52.030;7.110;2023-10-19T07:17:45;98618.22;;;12.69;100.00
34961;BME280;30789;52.030;7.110;2023-10-19T07:20:16;98613.16;;;12.67;100.00
34961;BME280;30789;52.030;7.110;2023-10-19T07:22:52;98618.84;;;12.73;100.00
34961;BME280;30789;52.030;7.110;2023-10-19T07:25:28;98615.97;;;12.76;100.00
34961;BME280;30789;52.030;7.110;2023-10-19T08:11:08;98631.59;;;13.56;100.00
34961;BME280;30789;52.030;7.110;2023-10-19T08:13:43;98631.72;;;13.53;100.00
34961;BME280;30789;52.030;7.110;2023-10-19T08:16:34;98638.38;;;13.64;100.00
34961;BME280;30789;52.030;7.110;2023-10-19T08:19:35;98645.66;;;13.71;100.00
34961;BME280;30789;52.030;7.110;2023-10-19T08:22:25;98634.44;;;13.74;100.00
34961;BME280;30789;52.030;7.110;2023-10-19T08:25:00;98636.16;;;13.81;100.00
34961;BME280;30789;52.030;7.110;2023-10-19T08:27:35;98646.78;;;13.83;100.00
34961;BME280;30789;52.030;7.110;2023-10-19T08:30:03;98638.03;;;13.84;100.00
34961;BME280;30789;52.030;7.110;2023-10-19T08:32:30;98634.47;;;13.84;100.00
34961;BME280;30789;52.030;7.110;2023-10-19T08:34:58;98637.69;;;13.82;100.00
34961;BME280;30789;52.030;7.110;2023-10-19T08:37:26;98637.56;;;13.86;100.00
34961;BME280;30789;52.030;7.110;2023-10-19T08:39:53;98636.69;;;13.98;100.00
34961;BME280;30789;52.030;7.110;2023-10-19T08:42:20;98627.00;;;14.02;100.00
34961;BME280;30789;52.030;7.110;2023-10-19T08:44:48;98631.97;;;14.07;100.00
34961;BME280;30789;52.030;7.110;2023-10-19T08:47:14;98627.50;;;14.10;100.00
34961;BME280;30789;52.030;7.110;2023-10-19T08:49:41;98635.47;;;14.08;100.00
34961;BME280;30789;52.030;7.110;2023-10-19T08:52:08;98627.81;;;14.12;100.00
34961;BME280;30789;52.030;7.110;2023-10-19T08:54:35;98623.22;;;14.18;100.00
34961;BME280;30789;52.030;7.110;2023-10-19T08:57:02;98631.34;;;14.21;100.00
34961;BME280;30789;52.030;7.110;2023-10-19T08:59:29;98626.13;;;14.14;100.00
34961;BME280;30789;52.030;7.110;2023-10-19T09:02:01;98627.84;;;14.21;100.00
34961;BME280;30789;52.030;7.110;2023-10-19T09:04:28;98633.41;;;14.30;100.00
34961;BME280;30789;52.030;7.110;2023-10-19T09:06:55;98634.97;;;14.40;100.00
34961;BME280;30789;52.030;7.110;2023-10-19T09:09:21;98620.81;;;14.38;100.00
34961;BME280;30789;52.030;7.110;2023-10-19T09:11:51;98622.69;;;14.50;100.00
34961;BME280;30789;52.030;7.110;2023-10-19T09:14:30;98625.00;;;14.60;100.00
34961;BME280;30789;52.030;7.110;2023-10-19T09:16:59;98631.00;;;14.68;100.00
34961;BME280;30789;52.030;7.110;2023-10-19T09:19:37;98631.47;;;14.93;100.00
34961;BME280;30789;52.030;7.110;2023-10-19T09:22:04;98623.13;;;15.02;98.54
34961;BME280;30789;52.030;7.110;2023-10-19T09:24:33;98616.97;;;15.07;97.32
34961;BME280;30789;52.030;7.110;2023-10-19T09:27:02;98620.81;;;15.19;96.59
34961;BME280;30789;52.030;7.110;2023-10-19T09:29:29;98629.44;;;15.21;96.42
34961;BME280;30789;52.030;7.110;2023-10-19T09:31:58;98627.88;;;15.29;96.50
34961;BME280;30789;52.030;7.110;2023-10-19T09:34:29;98613.56;;;15.21;97.34
34961;BME280;30789;52.030;7.110;2023-10-19T09:36:59;98604.75;;;15.32;96.92
34961;BME280;30789;52.030;7.110;2023-10-19T09:39:28;98613.97;;;15.47;95.79
34961;BME280;30789;52.030;7.110;2023-10-19T09:42:00;98612.44;;;15.46;95.69
34961;BME280;30789;52.030;7.110;2023-10-19T09:44:28;98610.84;;;15.63;94.31
34961;BME280;30789;52.030;7.110;2023-10-19T09:46:57;98609.06;;;15.84;93.24
34961;BME280;30789;52.030;7.110;2023-10-19T09:49:26;98605.59;;;16.30;91.36
34961;BME280;30789;52.030;7.110;2023-10-19T09:51:53;98601.56;;;16.78;90.76
34961;BME280;30789;52.030;7.110;2023-10-19T09:54:26;98598.88;;;16.98;86.98
34961;BME280;30789;52.030;7.110;2023-10-19T09:57:00;98592.44;;;16.92;86.92
34961;BME280;30789;52.030;7.110;2023-10-19T09:59:32;98599.84;;;16.81;88.32
34961;BME280;30789;52.030;7.110;2023-10-19T10:02:07;98599.56;;;16.55;89.71
34961;BME280;30789;52.030;7.110;2023-10-19T10:04:36;98605.66;;;16.21;91.13
34961;BME280;30789;52.030;7.110;2023-10-19T10:07:04;98601.09;;;16.09;92.21
34961;BME280;30789;52.030;7.110;2023-10-19T10:09:34;98606.28;;;15.84;93.10
34961;BME280;30789;52.030;7.110;2023-10-19T10:12:21;98603.13;;;15.67;95.01
34961;BME280;30789;52.030;7.110;2023-10-19T10:14:56;98611.59;;;15.64;94.80
34961;BME280;30789;52.030;7.110;2023-10-19T10:17:24;98605.13;;;15.67;95.69
34961;BME280;30789;52.030;7.110;2023-10-19T10:19:54;98600.34;;;15.67;96.36
34961;BME280;30789;52.030;7.110;2023-10-19T10:22:22;98611.91;;;15.66;96.34
34961;BME280;30789;52.030;7.110;2023-10-19T10:24:54;98615.63;;;15.63;96.16
34961;BME280;30789;52.030;7.110;2023-10-19T10:27:21;98597.88;;;15.69;96.24
34961;BME280;30789;52.030;7.110;2023-10-19T10:29:55;98602.13;;;15.79;96.66
34961;BME280;30789;52.030;7.110;2023-10-19T10:32:44;98601.88;;;16.01;96.18
34961;BME280;30789;52.030;7.110;2023-10-19T10:35:53;98592.56;;;16.13;95.22
34961;BME280;30789;52.030;7.110;2023-10-19T10:38:19;98602.44;;;16.37;93.71
34961;BME280;30789;52.030;7.110;2023-10-19T10:40:49;98612.97;;;16.80;92.98
34961;BME280;30789;52.030;7.110;2023-10-19T10:43:17;98613.44;;;16.79;91.37
34961;BME280;30789;52.030;7.110;2023-10-19T10:45:44;98611.94;;;16.92;91.42
34961;BME280;30789;52.030;7.110;2023-10-19T10:48:13;98604.19;;;16.96;90.12
34961;BME280;30789;52.030;7.110;2023-10-19T10:50:40;98606.91;;;16.82;90.64
34961;BME280;30789;52.030;7.110;2023-10-19T10:53:11;98608.19;;;16.95;90.47
34961;BME280;30789;52.030;7.110;2023-10-19T10:55:38;98603.59;;;16.92;90.51
34961;BME280;30789;52.030;7.110;2023-10-19T10:58:06;98595.63;;;17.00;90.91
34961;BME280;30789;52.030;7.110;2023-10-19T11:00:34;98596.53;;;17.35;90.29
34961;BME280;30789;52.030;7.110;2023-10-19T11:03:04;98612.34;;;18.56;85.03
34961;BME280;30789;52.030;7.110;2023-10-19T11:05:33;98612.09;;;19.77;78.55
34961;BME280;30789;52.030;7.110;2023-10-19T11:08:06;98604.19;;;20.43;74.34
34961;BME280;30789;52.030;7.110;2023-10-19T11:10:33;98602.91;;;20.44;73.61
34961;BME280;30789;52.030;7.110;2023-10-19T11:13:01;98618.91;;;20.07;74.55
34961;BME280;30789;52.030;7.110;2023-10-19T11:15:29;98620.19;;;19.44;77.32
34961;BME280;30789;52.030;7.110;2023-10-19T11:17:56;98613.03;;;19.37;77.22
34961;BME280;30789;52.030;7.110;2023-10-19T11:20:23;98607.53;;;19.79;74.97
34961;BME280;30789;52.030;7.110;2023-10-19T11:22:51;98603.72;;;19.00;77.59
34961;BME280;30789;52.030;7.110;2023-10-19T11:25:19;98605.66;;;19.14;78.07
34961;BME280;30789;52.030;7.110;2023-10-19T11:27:46;98603.69;;;18.95;77.61
34961;BME280;30789;52.030;7.110;2023-10-19T11:30:14;98597.28;;;18.68;78.87
34961;BME280;30789;52.030;7.110;2023-10-19T11:32:50;98595.53;;;18.51;81.07
34961;BME280;30789;52.030;7.110;2023-10-19T11:35:18;98587.56;;;18.24;80.46
34961;BME280;30789;52.030;7.110;2023-10-19T11:37:48;98574.72;;;18.32;81.30
34961;BME280;30789;52.030;7.110;2023-10-19T11:40:15;98584.63;;;18.33;82.88
34961;BME280;30789;52.030;7.110;2023-10-19T11:42:42;98577.13;;;18.39;80.89
34961;BME280;30789;52.030;7.110;2023-10-19T11:45:09;98564.31;;;18.47;81.61
34961;BME280;30789;52.030;7.110;2023-10-19T11:47:36;98568.41;;;18.72;80.17
34961;BME280;30789;52.030;7.110;2023-10-19T11:50:06;98567.69;;;18.56;80.14
34961;BME280;30789;52.030;7.110;2023-10-19T11:52:32;98561.06;;;18.74;79.47
34961;BME280;30789;52.030;7.110;2023-10-19T11:54:59;98554.13;;;19.15;76.98
34961;BME280;30789;52.030;7.110;2023-10-19T11:57:25;98562.28;;;19.19;75.93
34961;BME280;30789;52.030;7.110;2023-10-19T11:59:52;98561.72;;;18.63;80.00
34961;BME280;30789;52.030;7.110;2023-10-19T12:02:18;98555.06;;;18.61;79.70
34961;BME280;30789;52.030;7.110;2023-10-19T12:04:45;98555.72;;;18.50;78.32
34961;BME280;30789;52.030;7.110;2023-10-19T12:07:13;98560.38;;;18.59;78.73
34961;BME280;30789;52.030;7.110;2023-10-19T12:09:40;98557.75;;;18.50;80.91
34961;BME280;30789;52.030;7.110;2023-10-19T12:12:07;98537.31;;;18.38;80.73
34961;BME280;30789;52.030;7.110;2023-10-19T12:14:34;98535.13;;;18.28;81.06
34961;BME280;30789;52.030;7.110;2023-10-19T12:17:01;98528.25;;;18.43;80.05
34961;BME280;30789;52.030;7.110;2023-10-19T12:19:29;98519.88;;;18.89;78.81
34961;BME280;30789;52.030;7.110;2023-10-19T12:21:56;98520.34;;;19.13;77.03
34961;BME280;30789;52.030;7.110;2023-10-19T12:24:24;98517.97;;;19.57;74.54
34961;BME280;30789;52.030;7.110;2023-10-19T12:26:53;98519.75;;;20.02;72.58
34961;BME280;30789;52.030;7.110;2023-10-19T12:29:20;98521.94;;;19.82;73.91
34961;BME280;30789;52.030;7.110;2023-10-19T12:31:47;98514.34;;;21.38;68.10
34961;BME280;30789;52.030;7.110;2023-10-19T12:34:13;98505.13;;;21.16;66.14
34961;BME280;30789;52.030;7.110;2023-10-19T12:36:42;98522.47;;;20.33;69.74
34961;BME280;30789;52.030;7.110;2023-10-19T12:39:11;98517.91;;;20.36;70.40
34961;BME280;30789;52.030;7.110;2023-10-19T12:42:02;98522.94;;;19.79;71.52
34961;BME280;30789;52.030;7.110;2023-10-19T12:44:29;98525.47;;;19.46;72.93
34961;BME280;30789;52.030;7.110;2023-10-19T12:47:04;98517.63;;;18.93;75.31
34961;BME280;30789;52.030;7.110;2023-10-19T12:49:34;98520.63;;;18.90;76.14
34961;BME280;30789;52.030;7.110;2023-10-19T12:52:01;98510.91;;;18.59;76.70
34961;BME280;30789;52.030;7.110;2023-10-19T12:54:28;98511.91;;;18.36;78.59
34961;BME280;30789;52.030;7.110;2023-10-19T12:56:55;98503.69;;;18.27;79.68
34961;BME280;30789;52.030;7.110;2023-10-19T12:59:24;98500.53;;;18.20;80.81
34961;BME280;30789;52.030;7.110;2023-10-19T13:01:51;98496.09;;;18.08;80.91
34961;BME280;30789;52.030;7.110;2023-10-19T13:04:20;98492.25;;;17.85;81.79
34961;BME280;30789;52.030;7.110;2023-10-19T13:06:49;98498.63;;;17.71;83.25
34961;BME280;30789;52.030;7.110;2023-10-19T13:09:15;98503.03;;;17.78;83.24
34961;BME280;30789;52.030;7.110;2023-10-19T13:11:47;98501.00;;;17.58;83.65
34961;BME280;30789;52.030;7.110;2023-10-19T13:14:17;98494.44;;;17.61;82.08
34961;BME280;30789;52.030;7.110;2023-10-19T13:16:45;98495.06;;;17.71;84.08
34961;BME280;30789;52.030;7.110;2023-10-19T13:19:15;98502.25;;;17.77;84.97
34961;BME280;30789;52.030;7.110;2023-10-19T13:21:46;98503.06;;;17.63;83.73
34961;BME280;30789;52.030;7.110;2023-10-19T13:24:12;98509.59;;;17.60;83.57
34961;BME280;30789;52.030;7.110;2023-10-19T13:26:39;98515.09;;;17.40;85.38
34961;BME280;30789;52.030;7.110;2023-10-19T13:29:07;98512.41;;;17.31;86.42
34961;BME280;30789;52.030;7.110;2023-10-19T13:31:34;98505.63;;;17.18;86.77
34961;BME280;30789;52.030;7.110;2023-10-19T13:34:02;98501.50;;;17.13;87.07
34961;BME280;30789;52.030;7.110;2023-10-19T13:36:35;98509.00;;;17.07;87.46
34961;BME280;30789;52.030;7.110;2023-10-19T13:39:02;98510.13;;;17.00;87.59
34961;BME280;30789;52.030;7.110;2023-10-19T13:41:29;98508.41;;;16.88;87.71
34961;BME280;30789;52.030;7.110;2023-10-19T13:43:56;98503.22;;;16.96;88.22
34961;BME280;30789;52.030;7.110;2023-10-19T13:46:23;98493.72;;;16.88;89.05
34961;BME280;30789;52.030;7.110;2023-10-19T13:48:50;98498.72;;;16.84;88.66
34961;BME280;30789;52.030;7.110;2023-10-19T13:51:20;98500.53;;;17.01;87.80
34961;BME280;30789;52.030;7.110;2023-10-19T13:53:47;98497.59;;;16.90;88.96
34961;BME280;30789;52.030;7.110;2023-10-19T13:56:15;98500.94;;;16.80;89.57
34961;BME280;30789;52.030;7.110;2023-10-19T13:58:42;98498.03;;;16.74;89.73
34961;BME280;30789;52.030;7.110;2023-10-19T14:01:09;98496.69;;;16.70;90.98
34961;BME280;30789;52.030;7.110;2023-10-19T14:03:37;98495.34;;;16.65;90.94
34961;BME280;30789;52.030;7.110;2023-10-19T14:06:03;98496.41;;;16.68;90.50
34961;BME280;30789;52.030;7.110;2023-10-19T14:08:32;98494.88;;;16.67;90.78
34961;BME280;30789;52.030;7.110;2023-10-19T14:11:01;98486.72;;;16.63;92.02
34961;BME280;30789;52.030;7.110;2023-10-19T14:13:28;98483.34;;;16.59;91.30
34961;BME280;30789;52.030;7.110;2023-10-19T14:15:55;98476.44;;;16.55;92.46
34961;BME280;30789;52.030;7.110;2023-10-19T14:18:22;98468.69;;;16.59;92.69
34961;BME280;30789;52.030;7.110;2023-10-19T14:20:48;98473.09;;;16.51;92.24
34961;BME280;30789;52.030;7.110;2023-10-19T14:23:15;98479.22;;;16.55;92.51
34961;BME280;30789;52.030;7.110;2023-10-19T14:25:42;98469.72;;;16.47;93.12
34961;BME280;30789;52.030;7.110;2023-10-19T14:28:09;98472.03;;;16.48;93.14
34961;BME280;30789;52.030;7.110;2023-10-19T14:30:37;98475.75;;;16.45;93.10
34961;BME280;30789;52.030;7.110;2023-10-19T14:33:04;98480.66;;;16.50;92.55
34961;BME280;30789;52.030;7.110;2023-10-19T14:35:36;98476.16;;;16.53;93.83
34961;BME280;30789;52.030;7.110;2023-10-19T14:38:17;98471.38;;;16.53;94.33
34961;BME280;30789;52.030;7.110;2023-10-19T14:40:48;98476.16;;;16.53;94.26
34961;BME280;30789;52.030;7.110;2023-10-19T14:43:29;98471.53;;;16.50;93.69
34961;BME280;30789;52.030;7.110;2023-10-19T14:46:00;98473.28;;;16.47;94.80
34961;BME280;30789;52.030;7.110;2023-10-19T14:48:50;98462.88;;;16.33;93.27
34961;BME280;30789;52.030;7.110;2023-10-19T14:51:26;98458.44;;;16.27;94.69
34961;BME280;30789;52.030;7.110;2023-10-19T14:54:08;98459.13;;;16.22;93.88
34961;BME280;30789;52.030;7.110;2023-10-19T14:57:07;98447.56;;;16.14;94.68
34961;BME280;30789;52.030;7.110;2023-10-19T14:59:41;98456.59;;;16.09;94.74
34961;BME280;30789;52.030;7.110;2023-10-19T15:02:14;98450.31;;;16.00;95.93
34961;BME280;30789;52.030;7.110;2023-10-19T15:04:45;98448.38;;;15.91;97.09
34961;BME280;30789;52.030;7.110;2023-10-19T15:07:14;98445.31;;;15.89;98.08
34961;BME280;30789;52.030;7.110;2023-10-19T15:09:42;98439.84;;;15.80;98.52
34961;BME280;30789;52.030;7.110;2023-10-19T15:12:15;98433.03;;;15.81;98.39
34961;BME280;30789;52.030;7.110;2023-10-19T15:14:42;98435.22;;;15.77;99.03
34961;BME280;30789;52.030;7.110;2023-10-19T15:17:10;98430.41;;;15.78;98.90
34961;BME280;30789;52.030;7.110;2023-10-19T15:19:43;98427.66;;;15.78;98.42
34961;BME280;30789;52.030;7.110;2023-10-19T15:22:10;98419.22;;;15.72;98.56
34961;BME280;30789;52.030;7.110;2023-10-19T15:24:38;98407.03;;;15.70;98.36
34961;BME280;30789;52.030;7.110;2023-10-19T15:27:07;98411.34;;;15.71;97.59
34961;BME280;30789;52.030;7.110;2023-10-19T15:29:43;98415.97;;;15.74;98.01
34961;BME280;30789;52.030;7.110;2023-10-19T15:32:11;98407.53;;;15.68;98.83
34961;BME280;30789;52.030;7.110;2023-10-19T15:34:40;98405.38;;;15.63;98.79
34961;BME280;30789;52.030;7.110;2023-10-19T15:37:11;98401.06;;;15.62;99.32
34961;BME280;30789;52.030;7.110;2023-10-19T15:39:37;98393.69;;;15.59;99.50
34961;BME280;30789;52.030;7.110;2023-10-19T15:42:04;98392.63;;;15.57;99.78
34961;BME280;30789;52.030;7.110;2023-10-19T15:44:33;98393.25;;;15.52;100.00
34961;BME280;30789;52.030;7.110;2023-10-19T15:47:05;98395.75;;;15.50;100.00
34961;BME280;30789;52.030;7.110;2023-10-19T15:49:48;98391.91;;;15.47;100.00
34961;BME280;30789;52.030;7.110;2023-10-19T15:52:18;98391.50;;;15.39;100.00
34961;BME280;30789;52.030;7.110;2023-10-19T15:54:46;98386.41;;;15.38;100.00
34961;BME280;30789;52.030;7.110;2023-10-19T15:57:16;98379.00;;;15.35;100.00
34961;BME280;30789;52.030;7.110;2023-10-19T15:59:46;98380.72;;;15.32;100.00
34961;BME280;30789;52.030;7.110;2023-10-19T16:02:16;98380.41;;;15.30;100.00
34961;BME280;30789;52.030;7.110;2023-10-19T16:04:58;98378.28;;;15.25;100.00
34961;BME280;30789;52.030;7.110;2023-10-19T16:07:26;98369.69;;;15.23;100.00
34961;BME280;30789;52.030;7.110;2023-10-19T16:16:58;98378.63;;;15.51;98.23
34961;BME280;30789;52.030;7.110;2023-10-19T16:20:18;98378.63;;;15.51;98.50
34961;BME280;30789;52.030;7.110;2023-10-19T16:22:48;98378.34;;;15.49;98.84
34961;BME280;30789;52.030;7.110;2023-10-19T16:25:15;98375.44;;;15.44;98.88
34961;BME280;30789;52.030;7.110;2023-10-19T16:27:43;98368.50;;;15.39;99.16
34961;BME280;30789;52.030;7.110;2023-10-19T16:30:11;98374.22;;;15.35;99.11
34961;BME280;30789;52.030;7.110;2023-10-19T16:38:48;98382.31;;;15.24;100.00
34961;BME280;30789;52.030;7.110;2023-10-19T16:47:17;98372.09;;;15.30;99.69
34961;BME280;30789;52.030;7.110;2023-10-19T16:53:05;98371.09;;;15.19;99.86
34961;BME280;30789;52.030;7.110;2023-10-19T16:55:43;98363.47;;;15.05;100.00
34961;BME280;30789;52.030;7.110;2023-10-19T16:58:15;98362.09;;;15.00;100.00
34961;BME280;30789;52.030;7.110;2023-10-19T17:18:32;98356.47;;;14.86;100.00
34961;BME280;30789;52.030;7.110;2023-10-19T17:21:30;98360.00;;;14.86;100.00
34961;BME280;30789;52.030;7.110;2023-10-19T17:24:19;98352.91;;;14.85;100.00
34961;BME280;30789;52.030;7.110;2023-10-19T17:27:20;98347.09;;;14.83;100.00
34961;BME280;30789;52.030;7.110;2023-10-19T17:29:51;98336.47;;;14.82;100.00
34961;BME280;30789;52.030;7.110;2023-10-19T17:32:20;98347.81;;;14.84;100.00
34961;BME280;30789;52.030;7.110;2023-10-19T17:34:49;98342.59;;;14.86;100.00
34961;BME280;30789;52.030;7.110;2023-10-19T17:37:43;98346.63;;;14.85;100.00
34961;BME280;30789;52.030;7.110;2023-10-19T17:43:57;98345.53;;;14.82;100.00
34961;BME280;30789;52.030;7.110;2023-10-19T17:46:40;98343.69;;;14.79;100.00
34961;BME280;30789;52.030;7.110;2023-10-19T18:38:32;98315.97;;;14.47;100.00
34961;BME280;30789;52.030;7.110;2023-10-19T18:41:10;98316.00;;;14.38;100.00
34961;BME280;30789;52.030;7.110;2023-10-19T18:43:39;98318.16;;;14.34;100.00
34961;BME280;30789;52.030;7.110;2023-10-19T18:46:07;98308.47;;;14.29;100.00
34961;BME280;30789;52.030;7.110;2023-10-19T18:48:38;98305.56;;;14.24;100.00
34961;BME280;30789;52.030;7.110;2023-10-19T18:51:06;98296.63;;;14.20;100.00
34961;BME280;30789;52.030;7.110;2023-10-19T18:53:35;98287.25;;;14.17;100.00
34961;BME280;30789;52.030;7.110;2023-10-19T18:56:04;98266.97;;;14.11;100.00
34961;BME280;30789;52.030;7.110;2023-10-19T18:58:31;98272.97;;;14.10;100.00
34961;BME280;30789;52.030;7.110;2023-10-19T19:01:00;98272.66;;;14.08;100.00
34961;BME280;30789;52.030;7.110;2023-10-19T19:03:29;98266.97;;;14.11;100.00
34961;BME280;30789;52.030;7.110;2023-10-19T19:05:56;98259.56;;;14.08;100.00
34961;BME280;30789;52.030;7.110;2023-10-19T19:08:25;98263.75;;;14.04;100.00
34961;BME280;30789;52.030;7.110;2023-10-19T19:10:55;98268.66;;;14.09;100.00
34961;BME280;30789;52.030;7.110;2023-10-19T19:13:26;98284.50;;;14.08;100.00
34961;BME280;30789;52.030;7.110;2023-10-19T19:15:53;98285.91;;;14.04;100.00
34961;BME280;30789;52.030;7.110;2023-10-19T19:18:23;98283.88;;;14.04;100.00
34961;BME280;30789;52.030;7.110;2023-10-19T19:20:53;98286.66;;;14.04;100.00
34961;BME280;30789;52.030;7.110;2023-10-19T19:23:22;98300.38;;;13.99;100.00
34961;BME280;30789;52.030;7.110;2023-10-19T19:25:51;98299.91;;;14.00;100.00
34961;BME280;30789;52.030;7.110;2023-10-19T19:28:20;98300.38;;;13.99;100.00
34961;BME280;30789;52.030;7.110;2023-10-19T19:30:50;98298.53;;;13.96;100.00
34961;BME280;30789;52.030;7.110;2023-10-19T19:33:19;98306.06;;;13.95;100.00
34961;BME280;30789;52.030;7.110;2023-10-19T19:35:46;98314.09;;;13.93;100.00
34961;BME280;30789;52.030;7.110;2023-10-19T19:38:16;98310.06;;;13.94;100.00
34961;BME280;30789;52.030;7.110;2023-10-19T19:40:46;98306.53;;;13.94;100.00
34961;BME280;30789;52.030;7.110;2023-10-19T19:43:26;98302.53;;;13.95;100.00
34961;BME280;30789;52.030;7.110;2023-10-19T19:45:53;98281.59;;;13.94;100.00
34961;BME280;30789;52.030;7.110;2023-10-19T19:48:22;98271.47;;;13.91;100.00
34961;BME280;30789;52.030;7.110;2023-10-19T19:50:49;98273.94;;;13.89;100.00
34961;BME280;30789;52.030;7.110;2023-10-19T19:53:18;98269.94;;;13.90;100.00
34961;BME280;30789;52.030;7.110;2023-10-19T19:55:46;98274.22;;;13.91;100.00
34961;BME280;30789;52.030;7.110;2023-10-19T19:58:19;98278.69;;;13.88;100.00
34961;BME280;30789;52.030;7.110;2023-10-19T20:00:50;98270.88;;;13.87;100.00
34961;BME280;30789;52.030;7.110;2023-10-19T20:03:17;98259.00;;;13.86;100.00
34961;BME280;30789;52.030;7.110;2023-10-19T20:05:43;98263.03;;;13.85;100.00